Time;durP1;ratioP1;P1;durP2;ratioP2;P2;SDS_P1;SDS_P2;PMS_P1;PMS_P2;Temp;Humidity;BMP_temperature;BMP_pressure;BME280_temperature;BME280_humidity;BME280_pressure;Samples;Min_cycle;Max_cycle;Signal;HPM_P1;HPM_P2
2022/04/04 00:01:05;;;;;;;16.95;12.32;;;2.10;99.90;;;;;;4338639;28;10000898;-67
2022/04/04 00:03:31;;;;;;;14.00;12.32;;;2.00;99.90;;;;;;5042937;28;20143;-68
2022/04/04 00:05:57;;;;;;;14.32;12.15;;;2.00;99.90;;;;;;5044620;28;20112;-68
2022/04/04 00:08:22;;;;;;;15.32;12.88;;;2.00;99.90;;;;;;5040473;28;20127;-68
2022/04/04 00:10:48;;;;;;;14.68;11.38;;;2.00;99.90;;;;;;5041546;28;20121;-68
2022/04/04 00:13:13;;;;;;;14.65;11.98;;;2.00;99.90;;;;;;5043291;28;20033;-68
2022/04/04 00:15:40;;;;;;;16.77;12.13;;;2.00;99.90;;;;;;5044288;28;20036;-68
2022/04/04 00:18:10;;;;;;;18.10;12.18;;;2.00;99.90;;;;;;5049457;28;20036;-68
2022/04/04 00:20:39;;;;;;;15.35;12.77;;;2.00;99.90;;;;;;5038365;28;20370;-68
2022/04/04 00:23:07;;;;;;;13.40;11.85;;;1.90;99.90;;;;;;5027989;28;20040;-67
2022/04/04 00:25:33;;;;;;;15.80;12.48;;;1.90;99.90;;;;;;5030173;28;20112;-67
2022/04/04 00:27:58;;;;;;;18.40;13.10;;;1.90;99.90;;;;;;5041407;28;20148;-67
2022/04/04 00:30:24;;;;;;;18.40;13.30;;;1.90;99.90;;;;;;5044840;28;20048;-67
2022/04/04 00:32:50;;;;;;;17.35;13.00;;;1.90;99.90;;;;;;5042925;28;20483;-67
2022/04/04 00:35:15;;;;;;;21.55;13.57;;;1.90;99.90;;;;;;5023068;28;20341;-67
2022/04/04 00:37:41;;;;;;;16.30;13.23;;;1.80;99.90;;;;;;5016936;28;20508;-68
2022/04/04 00:40:07;;;;;;;19.02;13.00;;;1.80;99.90;;;;;;5024593;28;20028;-68
2022/04/04 00:42:33;;;;;;;16.33;13.50;;;1.80;99.90;;;;;;5019596;28;20505;-67
2022/04/04 00:45:00;;;;;;;18.08;12.73;;;1.80;99.90;;;;;;5031283;28;20021;-67
2022/04/04 00:47:26;;;;;;;16.80;12.38;;;1.80;99.90;;;;;;5029919;28;20053;-67
2022/04/04 00:49:51;;;;;;;17.40;11.98;;;1.70;99.90;;;;;;5017621;28;20464;-67
2022/04/04 00:52:18;;;;;;;14.52;11.60;;;1.80;99.90;;;;;;5033323;28;20086;-67
2022/04/04 00:54:45;;;;;;;13.50;11.32;;;1.80;99.90;;;;;;5022636;28;20551;-68
2022/04/04 00:57:11;;;;;;;14.07;11.27;;;1.90;99.90;;;;;;5023276;28;20095;-67
2022/04/04 00:59:37;;;;;;;14.38;11.02;;;1.90;99.90;;;;;;5019120;28;20029;-67
2022/04/04 01:02:04;;;;;;;14.48;10.60;;;1.90;99.90;;;;;;5023583;28;20154;-67
2022/04/04 01:04:30;;;;;;;13.93;10.38;;;1.90;99.90;;;;;;5030884;28;20021;-67
2022/04/04 01:06:55;;;;;;;14.52;9.93;;;1.90;99.90;;;;;;5014873;28;20355;-67
2022/04/04 01:09:21;;;;;;;12.70;10.23;;;1.90;99.90;;;;;;5027300;28;20053;-67
2022/04/04 01:12:09;;;;;;;12.07;10.15;;;1.90;99.90;;;;;;5032216;28;20025;-67
2022/04/04 01:14:36;;;;;;;14.38;10.38;;;1.90;99.90;;;;;;5018776;28;20022;-67
2022/04/04 01:17:03;;;;;;;15.20;10.55;;;1.80;99.90;;;;;;5016280;28;20029;-67
2022/04/04 01:19:28;;;;;;;13.60;9.90;;;1.70;99.90;;;;;;5021674;28;20396;-67
2022/04/04 01:21:54;;;;;;;15.18;11.00;;;1.70;99.90;;;;;;5029302;28;20230;-67
2022/04/04 01:24:21;;;;;;;12.68;10.68;;;1.60;99.90;;;;;;5023303;28;20527;-68
2022/04/04 01:26:48;;;;;;;15.27;11.27;;;1.50;99.90;;;;;;5027801;28;20111;-67
2022/04/04 01:29:14;;;;;;;13.80;10.93;;;1.50;99.90;;;;;;5025649;28;20033;-67
2022/04/04 01:31:40;;;;;;;16.10;11.43;;;1.50;99.90;;;;;;5045381;28;20045;-67
2022/04/04 01:34:05;;;;;;;16.40;10.85;;;1.40;99.90;;;;;;5038942;28;20032;-67
2022/04/04 01:36:31;;;;;;;17.38;11.82;;;1.40;99.90;;;;;;5052677;28;20033;-68
2022/04/04 01:38:57;;;;;;;18.92;11.70;;;1.30;99.90;;;;;;5038325;28;20075;-68
2022/04/04 01:41:22;;;;;;;15.57;11.68;;;1.30;99.90;;;;;;5050836;28;20430;-68
2022/04/04 01:43:48;;;;;;;14.32;11.70;;;1.30;99.90;;;;;;5033806;28;20025;-67
2022/04/04 01:46:27;;;;;;;16.52;12.07;;;1.30;99.90;;;;;;5034305;28;20022;-68
2022/04/04 01:48:58;;;;;;;16.15;12.77;;;1.30;99.90;;;;;;5045162;28;20057;-67
2022/04/04 01:51:25;;;;;;;22.63;13.05;;;1.30;99.90;;;;;;5037177;28;20512;-68
2022/04/04 01:53:51;;;;;;;16.85;12.65;;;1.30;99.90;;;;;;5030326;28;20033;-67
2022/04/04 01:56:17;;;;;;;17.88;12.98;;;1.30;99.90;;;;;;5056334;28;20032;-67
2022/04/04 01:58:43;;;;;;;16.00;12.73;;;1.20;99.90;;;;;;5055587;28;20025;-67
2022/04/04 02:01:20;;;;;;;22.67;14.82;;;1.20;99.90;;;;;;5051591;28;20025;-67
2022/04/04 02:03:51;;;;;;;19.17;14.07;;;1.20;99.90;;;;;;5053016;28;20021;-67
2022/04/04 02:06:18;;;;;;;19.90;14.73;;;1.10;99.90;;;;;;5043688;28;20037;-67
2022/04/04 02:08:44;;;;;;;17.92;14.27;;;1.10;99.90;;;;;;5050607;28;20066;-67
2022/04/04 02:11:10;;;;;;;19.55;13.95;;;1.00;99.90;;;;;;5041558;28;20053;-67
2022/04/04 02:13:36;;;;;;;18.30;14.25;;;1.00;99.90;;;;;;5040304;28;20090;-67
2022/04/04 02:16:03;;;;;;;22.13;15.23;;;0.90;99.90;;;;;;5039551;28;20013;-67
2022/04/04 02:18:30;;;;;;;20.25;14.80;;;0.90;99.90;;;;;;5032312;28;20275;-67
2022/04/04 02:20:56;;;;;;;21.05;14.75;;;0.90;99.90;;;;;;5035986;28;20036;-68
2022/04/04 02:23:22;;;;;;;21.95;15.70;;;0.90;99.90;;;;;;5042367;28;20030;-67
2022/04/04 02:25:49;;;;;;;18.33;14.25;;;0.80;99.90;;;;;;5041079;28;20032;-67
2022/04/04 02:28:16;;;;;;;21.73;15.02;;;0.90;99.90;;;;;;5040265;28;20032;-67
2022/04/04 02:30:42;;;;;;;19.75;15.07;;;0.80;99.90;;;;;;5044452;28;20261;-67
2022/04/04 02:33:09;;;;;;;20.92;15.45;;;0.80;99.90;;;;;;5039266;28;20393;-67
2022/04/04 02:35:35;;;;;;;20.15;15.50;;;0.80;99.90;;;;;;5045745;28;20124;-68
2022/04/04 02:38:02;;;;;;;22.95;15.85;;;0.70;99.90;;;;;;5042991;28;20170;-67
2022/04/04 02:40:28;;;;;;;22.42;15.63;;;0.70;99.90;;;;;;5035030;28;20032;-67
2022/04/04 02:42:54;;;;;;;19.65;15.32;;;0.70;99.90;;;;;;5038446;28;20033;-68
2022/04/04 02:45:20;;;;;;;20.48;15.38;;;0.70;99.90;;;;;;5046089;28;20036;-67
2022/04/04 02:47:46;;;;;;;20.92;15.55;;;0.70;99.90;;;;;;5043082;28;20025;-67
2022/04/04 02:50:12;;;;;;;21.25;16.05;;;0.70;99.90;;;;;;5034621;28;20049;-67
2022/04/04 02:52:38;;;;;;;25.45;16.30;;;0.70;99.90;;;;;;5057755;28;20121;-67
2022/04/04 02:57:51;;;;;;;22.73;15.75;;;0.60;99.90;;;;;;5032104;28;20049;-67
2022/04/04 03:00:20;;;;;;;24.25;16.42;;;0.60;99.90;;;;;;5039600;28;20028;-67
2022/04/04 03:02:47;;;;;;;21.67;16.10;;;0.60;99.90;;;;;;5028175;28;20104;-67
2022/04/04 03:05:13;;;;;;;22.63;16.75;;;0.60;99.90;;;;;;5037369;28;20060;-67
2022/04/04 03:07:39;;;;;;;25.70;17.90;;;0.60;99.90;;;;;;5037809;28;20060;-67
2022/04/04 03:10:06;;;;;;;24.92;17.92;;;0.60;99.90;;;;;;5016942;28;20037;-67
2022/04/04 03:12:32;;;;;;;25.50;17.38;;;0.60;99.90;;;;;;5044488;28;20361;-67
2022/04/04 03:14:58;;;;;;;26.35;17.10;;;0.70;99.90;;;;;;5042269;28;20040;-67
2022/04/04 03:17:25;;;;;;;21.38;16.70;;;0.70;99.90;;;;;;5036674;28;20397;-67
2022/04/04 03:19:52;;;;;;;26.63;16.85;;;0.80;99.90;;;;;;5043652;28;20087;-67
2022/04/04 03:22:17;;;;;;;22.70;16.30;;;0.80;99.90;;;;;;5039212;28;20051;-67
2022/04/04 03:24:44;;;;;;;22.00;16.65;;;0.80;99.90;;;;;;5052922;28;20028;-67
2022/04/04 03:27:13;;;;;;;25.30;17.35;;;0.80;99.90;;;;;;5036635;28;20044;-67
2022/04/04 03:29:40;;;;;;;24.92;17.73;;;0.80;99.90;;;;;;5036861;28;20040;-67
2022/04/04 03:32:06;;;;;;;22.85;17.77;;;0.80;99.90;;;;;;5032348;28;20476;-68
2022/04/04 03:34:32;;;;;;;25.23;17.90;;;0.80;99.90;;;;;;5033829;28;20025;-67
2022/04/04 03:36:59;;;;;;;25.08;17.95;;;0.80;99.90;;;;;;5042236;28;20179;-67
2022/04/04 03:39:25;;;;;;;24.33;18.20;;;0.80;99.90;;;;;;5036687;28;20029;-67
2022/04/04 03:41:53;;;;;;;27.88;18.40;;;0.70;99.90;;;;;;5036114;28;20025;-67
2022/04/04 03:44:18;;;;;;;27.13;18.52;;;0.80;99.90;;;;;;5040171;28;20082;-67
2022/04/04 03:46:44;;;;;;;23.98;18.05;;;0.70;99.90;;;;;;5049040;28;20029;-67
2022/04/04 03:49:10;;;;;;;25.80;18.90;;;0.80;99.90;;;;;;5039679;28;20041;-67
2022/04/04 03:51:35;;;;;;;23.73;18.00;;;0.70;99.90;;;;;;5042649;28;20052;-67
2022/04/04 03:54:01;;;;;;;25.60;19.50;;;0.70;99.90;;;;;;5047704;28;20618;-67
2022/04/04 03:56:26;;;;;;;30.48;19.55;;;0.70;99.90;;;;;;5047446;28;20040;-67
2022/04/04 03:58:54;;;;;;;24.38;18.85;;;0.70;99.90;;;;;;5051952;28;20024;-68
2022/04/04 04:01:20;;;;;;;31.52;20.33;;;0.70;99.90;;;;;;5043188;28;20040;-67
2022/04/04 04:03:46;;;;;;;27.27;20.52;;;0.70;99.90;;;;;;5032015;28;20358;-68
2022/04/04 04:06:11;;;;;;;29.25;20.98;;;0.70;99.90;;;;;;5026326;28;20041;-67
2022/04/04 04:08:39;;;;;;;29.42;20.35;;;0.70;99.90;;;;;;5038147;28;20026;-67
2022/04/04 04:11:05;;;;;;;29.17;20.52;;;0.60;99.90;;;;;;5031751;28;20037;-67
2022/04/04 04:13:31;;;;;;;28.50;21.05;;;0.60;99.90;;;;;;5042299;28;20404;-67
2022/04/04 04:15:57;;;;;;;27.80;20.67;;;0.50;99.90;;;;;;5047209;28;20063;-67
2022/04/04 04:18:23;;;;;;;29.73;21.25;;;0.50;99.90;;;;;;5041785;28;20029;-67
2022/04/04 04:20:50;;;;;;;28.77;20.83;;;0.40;99.90;;;;;;5040816;28;20033;-67
2022/04/04 04:23:16;;;;;;;32.35;21.83;;;0.40;99.90;;;;;;5033978;28;20029;-67
2022/04/04 04:25:42;;;;;;;29.95;21.40;;;0.30;99.90;;;;;;5035769;28;20094;-67
2022/04/04 04:28:09;;;;;;;35.67;22.80;;;0.30;99.90;;;;;;5038540;28;20112;-67
2022/04/04 04:30:36;;;;;;;29.80;21.77;;;0.20;99.90;;;;;;5036892;28;20072;-67
2022/04/04 04:33:02;;;;;;;30.90;22.63;;;0.20;99.90;;;;;;5034915;28;20653;-67
2022/04/04 04:35:28;;;;;;;34.28;23.35;;;0.20;99.90;;;;;;5026462;28;20025;-67
2022/04/04 04:37:54;;;;;;;32.67;23.55;;;0.20;99.90;;;;;;5038354;28;20028;-67
2022/04/04 04:40:20;;;;;;;33.00;23.70;;;0.20;99.90;;;;;;5043123;28;20033;-67
2022/04/04 04:42:47;;;;;;;34.03;23.30;;;0.20;99.90;;;;;;5030494;28;20034;-67
2022/04/04 04:45:13;;;;;;;34.10;24.00;;;0.10;99.90;;;;;;5040790;28;20447;-67
2022/04/04 04:47:40;;;;;;;35.12;24.00;;;0.10;99.90;;;;;;4689308;28;10000584;-67
2022/04/04 04:50:06;;;;;;;33.35;23.67;;;0.10;99.90;;;;;;5038572;28;20049;-67
2022/04/04 04:52:35;;;;;;;37.80;25.15;;;0.10;99.90;;;;;;5046268;28;20427;-67
2022/04/04 04:55:01;;;;;;;38.05;25.00;;;0.10;99.90;;;;;;5039395;28;20369;-67
2022/04/04 04:57:27;;;;;;;37.42;24.77;;;0.10;99.90;;;;;;5043863;28;20061;-67
2022/04/04 04:59:53;;;;;;;38.08;24.05;;;0.10;99.90;;;;;;5021266;28;20239;-67
2022/04/04 05:02:19;;;;;;;37.40;25.77;;;0.10;99.90;;;;;;5038964;28;20029;-67
2022/04/04 05:04:44;;;;;;;36.10;24.33;;;0.20;99.90;;;;;;5034669;28;20138;-67
2022/04/04 05:07:10;;;;;;;35.90;24.40;;;0.20;99.90;;;;;;5039623;28;20469;-67
2022/04/04 05:09:36;;;;;;;41.72;25.15;;;0.20;99.90;;;;;;5039349;28;20225;-67
2022/04/04 05:12:03;;;;;;;38.75;24.92;;;0.20;99.90;;;;;;5037639;28;20393;-67
2022/04/04 05:14:28;;;;;;;35.83;25.40;;;0.20;99.90;;;;;;5036659;28;20045;-67
2022/04/04 05:16:54;;;;;;;38.97;25.27;;;0.20;99.90;;;;;;5036704;28;20112;-67
2022/04/04 05:19:22;;;;;;;35.40;24.27;;;0.20;99.90;;;;;;5039723;28;20446;-67
2022/04/04 05:21:48;;;;;;;36.75;24.23;;;0.20;99.90;;;;;;5057079;28;20034;-66
2022/04/04 05:24:14;;;;;;;36.45;25.30;;;0.20;99.90;;;;;;5036140;28;20041;-67
2022/04/04 05:26:40;;;;;;;38.30;24.15;;;0.20;99.90;;;;;;5041064;28;20028;-67
2022/04/04 05:29:06;;;;;;;40.28;25.52;;;0.20;99.90;;;;;;5038756;28;20120;-67
2022/04/04 05:31:32;;;;;;;34.85;24.48;;;0.20;99.90;;;;;;5032804;28;20115;-67
2022/04/04 05:33:59;;;;;;;36.35;24.63;;;0.30;99.90;;;;;;5041909;28;20024;-67
2022/04/04 05:36:28;;;;;;;35.00;24.45;;;0.30;99.90;;;;;;5038846;28;20040;-67
2022/04/04 05:38:55;;;;;;;37.53;24.67;;;0.40;99.90;;;;;;5042450;28;20047;-67
2022/04/04 05:41:20;;;;;;;38.85;25.00;;;0.40;99.90;;;;;;5047389;28;20367;-67
2022/04/04 05:43:47;;;;;;;38.13;25.40;;;0.40;99.90;;;;;;5044004;28;20109;-67
2022/04/04 05:46:15;;;;;;;36.10;23.90;;;0.40;99.90;;;;;;5046695;28;20029;-67
2022/04/04 05:48:41;;;;;;;37.63;24.30;;;0.50;99.90;;;;;;5040816;28;20026;-67
2022/04/04 05:51:08;;;;;;;34.95;24.13;;;0.50;99.90;;;;;;5044918;28;20106;-67
2022/04/04 05:53:34;;;;;;;32.63;22.90;;;0.50;99.90;;;;;;5047479;28;20124;-67
2022/04/04 05:56:00;;;;;;;43.75;23.98;;;0.50;99.90;;;;;;5032224;28;20108;-67
2022/04/04 05:58:25;;;;;;;34.50;22.77;;;0.60;99.90;;;;;;5042270;28;20025;-67
2022/04/04 06:00:51;;;;;;;34.15;23.98;;;0.60;99.90;;;;;;5040195;28;20022;-67
2022/04/04 06:03:18;;;;;;;33.38;23.67;;;0.60;99.90;;;;;;5045326;28;20029;-67
2022/04/04 06:05:46;;;;;;;32.78;22.48;;;0.70;99.90;;;;;;5032747;28;20108;-67
2022/04/04 06:08:12;;;;;;;36.40;23.30;;;0.70;99.90;;;;;;5043916;28;20340;-67
2022/04/04 06:10:37;;;;;;;33.95;23.80;;;0.80;99.90;;;;;;5036581;28;20377;-67
2022/04/04 06:13:03;;;;;;;33.97;22.20;;;0.80;99.90;;;;;;5045674;28;20262;-67
2022/04/04 06:15:28;;;;;;;32.33;22.42;;;0.90;99.90;;;;;;5043775;28;20245;-68
2022/04/04 06:17:54;;;;;;;31.60;21.73;;;0.90;99.90;;;;;;5040649;28;20017;-68
2022/04/04 06:20:20;;;;;;;30.20;21.27;;;0.90;99.90;;;;;;5041922;28;20079;-67
2022/04/04 06:22:46;;;;;;;28.55;19.92;;;1.00;99.90;;;;;;5040037;28;20032;-67
2022/04/04 06:25:15;;;;;;;32.20;21.33;;;1.00;99.90;;;;;;5033259;28;20029;-67
2022/04/04 06:27:41;;;;;;;37.97;26.52;;;1.00;99.90;;;;;;5039854;28;20037;-68
2022/04/04 06:30:08;;;;;;;37.40;26.15;;;1.10;99.90;;;;;;5044678;28;20049;-67
2022/04/04 06:32:34;;;;;;;30.77;22.00;;;1.10;99.90;;;;;;5020762;28;20021;-68
2022/04/04 06:35:00;;;;;;;32.95;22.73;;;1.10;99.90;;;;;;5012317;28;20053;-68
2022/04/04 06:37:26;;;;;;;33.88;22.52;;;1.20;99.90;;;;;;5021719;28;20072;-71
2022/04/04 06:39:51;;;;;;;29.48;20.83;;;1.20;99.90;;;;;;5021186;28;20504;-70
2022/04/04 06:42:17;;;;;;;33.20;22.08;;;1.30;99.90;;;;;;5032041;28;20063;-68
2022/04/04 06:44:43;;;;;;;29.10;21.30;;;1.30;99.90;;;;;;5021528;28;20040;-69
2022/04/04 06:47:12;;;;;;;33.85;21.80;;;1.30;99.90;;;;;;5032123;28;20487;-69
2022/04/04 06:49:37;;;;;;;28.65;20.55;;;1.40;99.90;;;;;;5025093;28;20022;-69
2022/04/04 06:52:03;;;;;;;30.50;21.38;;;1.40;99.90;;;;;;5019370;28;20030;-70
2022/04/04 06:54:29;;;;;;;32.53;21.77;;;1.50;99.90;;;;;;5024973;28;20021;-70
2022/04/04 06:56:55;;;;;;;32.55;21.92;;;1.60;99.90;;;;;;5024187;28;20032;-70
2022/04/04 06:59:21;;;;;;;31.50;22.00;;;1.60;99.90;;;;;;5019197;28;20367;-70
2022/04/04 07:01:48;;;;;;;30.23;20.52;;;1.70;99.90;;;;;;5007309;28;20060;-73
2022/04/04 07:04:13;;;;;;;28.70;20.17;;;1.70;99.90;;;;;;5019335;28;20469;-71
2022/04/04 07:06:39;;;;;;;28.80;21.02;;;1.80;99.90;;;;;;5029063;28;20095;-73
2022/04/04 07:09:07;;;;;;;29.80;20.73;;;1.90;99.90;;;;;;5025151;28;20115;-72
2022/04/04 07:11:35;;;;;;;32.70;22.05;;;1.90;99.90;;;;;;5033372;28;20033;-73
2022/04/04 07:14:02;;;;;;;31.65;22.15;;;2.00;99.90;;;;;;5020029;28;20037;-72
2022/04/04 07:16:28;;;;;;;31.45;21.38;;;2.10;99.90;;;;;;5018607;28;20504;-71
2022/04/04 07:18:54;;;;;;;29.92;21.05;;;2.20;99.90;;;;;;5030657;28;20026;-71
2022/04/04 07:21:20;;;;;;;31.38;22.00;;;2.30;99.90;;;;;;5032612;28;20421;-72
2022/04/04 07:23:48;;;;;;;29.58;20.63;;;2.40;99.90;;;;;;5030022;28;20334;-71
2022/04/04 07:26:18;;;;;;;29.88;20.05;;;2.50;99.90;;;;;;5031794;28;20137;-71
2022/04/04 07:28:46;;;;;;;30.27;19.90;;;2.60;99.90;;;;;;5031111;28;20450;-71
2022/04/04 07:31:14;;;;;;;32.08;20.67;;;2.60;99.90;;;;;;5025043;28;20053;-72
2022/04/04 07:33:39;;;;;;;27.42;19.92;;;2.70;99.90;;;;;;5048068;28;20040;-71
2022/04/04 07:36:05;;;;;;;25.92;19.35;;;2.80;99.90;;;;;;5045960;28;20503;-71
2022/04/04 07:38:31;;;;;;;28.10;19.77;;;3.00;99.90;;;;;;5048456;28;20029;-71
2022/04/04 07:40:57;;;;;;;28.90;19.13;;;3.10;99.90;;;;;;5050029;28;20417;-72
2022/04/04 07:43:23;;;;;;;25.45;18.58;;;3.20;99.90;;;;;;5054242;28;20025;-71
2022/04/04 07:45:49;;;;;;;24.95;18.60;;;3.20;99.90;;;;;;5033270;28;20056;-72
2022/04/04 07:48:14;;;;;;;26.50;18.48;;;3.30;99.90;;;;;;5041506;28;20291;-71
2022/04/04 07:50:42;;;;;;;26.25;19.08;;;3.30;99.90;;;;;;5046992;28;20597;-72
2022/04/04 07:53:07;;;;;;;24.48;18.13;;;3.30;99.90;;;;;;5050007;28;20492;-71
2022/04/04 07:55:33;;;;;;;26.48;19.65;;;3.40;99.90;;;;;;5049723;28;20036;-71
2022/04/04 07:57:59;;;;;;;28.30;18.80;;;3.50;99.90;;;;;;5055429;28;20048;-72
2022/04/04 08:00:24;;;;;;;29.45;17.20;;;3.60;99.90;;;;;;5044990;28;20053;-71
2022/04/04 08:02:50;;;;;;;26.52;17.58;;;3.70;99.90;;;;;;5050256;28;20024;-72
2022/04/04 08:05:16;;;;;;;24.52;16.88;;;3.70;99.90;;;;;;5028513;28;20029;-72
2022/04/04 08:07:46;;;;;;;23.13;17.73;;;3.80;99.90;;;;;;5038583;28;20037;-71
2022/04/04 08:10:11;;;;;;;22.02;16.20;;;3.90;99.90;;;;;;5056096;28;20060;-72
2022/04/04 08:12:37;;;;;;;26.00;17.25;;;3.90;99.90;;;;;;5051987;28;20052;-72
2022/04/04 08:15:03;;;;;;;22.75;16.27;;;4.00;99.90;;;;;;5045230;28;20367;-72
2022/04/04 08:17:28;;;;;;;22.30;15.45;;;4.10;99.90;;;;;;5053810;28;20030;-72
2022/04/04 08:19:54;;;;;;;30.17;18.67;;;4.30;99.90;;;;;;5047352;28;20025;-72
2022/04/04 08:22:22;;;;;;;20.35;15.40;;;4.30;99.90;;;;;;5049014;28;20024;-72
2022/04/04 08:24:50;;;;;;;22.25;15.00;;;4.40;99.90;;;;;;5046932;28;20401;-71
2022/04/04 08:27:15;;;;;;;20.73;15.18;;;4.60;99.90;;;;;;5037777;28;20017;-72
2022/04/04 08:29:42;;;;;;;16.88;13.40;;;4.70;99.90;;;;;;5052531;28;20125;-71
2022/04/04 08:32:08;;;;;;;17.42;12.35;;;4.70;99.90;;;;;;5065251;28;20036;-71
2022/04/04 08:34:34;;;;;;;16.55;10.68;;;4.80;99.90;;;;;;5040436;28;20117;-71
2022/04/04 08:37:00;;;;;;;16.48;10.38;;;5.00;99.90;;;;;;5050684;28;20127;-72
2022/04/04 08:39:25;;;;;;;14.18;9.98;;;5.10;99.90;;;;;;5049951;28;20508;-73
2022/04/04 08:41:55;;;;;;;13.95;10.13;;;5.10;99.90;;;;;;5052148;28;20079;-74
2022/04/04 08:44:21;;;;;;;17.65;10.70;;;5.20;99.90;;;;;;5039719;28;20052;-73
2022/04/04 08:46:47;;;;;;;13.13;9.07;;;5.20;99.90;;;;;;5048526;28;20027;-74
2022/04/04 08:49:13;;;;;;;11.93;9.40;;;5.20;99.90;;;;;;5052970;28;20029;-72
2022/04/04 08:51:39;;;;;;;13.38;9.38;;;;;;;;;;5043301;28;20394;-72
2022/04/04 08:54:05;;;;;;;13.10;8.63;;;;;;;;;;5040299;28;20025;-71
2022/04/04 08:56:31;;;;;;;11.15;8.82;;;;;;;;;;5032966;28;20389;-72
2022/04/04 08:58:57;;;;;;;15.05;8.68;;;;;;;;;;5026321;28;20028;-72
2022/04/04 09:01:24;;;;;;;11.40;8.60;;;;;;;;;;5051703;28;20044;-73
2022/04/04 09:03:52;;;;;;;15.23;9.38;;;5.80;99.90;;;;;;5039504;28;20413;-72
2022/04/04 09:06:18;;;;;;;12.98;9.18;;;5.80;99.90;;;;;;5048381;28;20108;-72
2022/04/04 09:08:45;;;;;;;13.15;8.95;;;5.70;99.90;;;;;;5042562;28;20606;-72
2022/04/04 09:11:12;;;;;;;11.55;8.98;;;5.70;99.90;;;;;;5043218;28;20109;-72
2022/04/04 09:13:38;;;;;;;14.90;9.98;;;5.70;99.90;;;;;;5053688;28;20033;-72
2022/04/04 09:16:05;;;;;;;10.43;8.85;;;5.80;99.90;;;;;;5041739;28;20021;-72
2022/04/04 09:18:37;;;;;;;11.95;9.60;;;5.80;99.90;;;;;;5041324;28;20718;-72
2022/04/04 09:21:18;;;;;;;11.93;8.75;;;5.80;99.90;;;;;;5043274;28;20433;-72
2022/04/04 09:23:50;;;;;;;14.02;9.90;;;;;;;;;;5041119;28;20049;-72
2022/04/04 09:26:33;;;;;;;14.10;10.43;;;;;;;;;;5030451;28;20026;-72
2022/04/04 09:29:06;;;;;;;13.98;10.27;;;;;;;;;;5035543;28;20037;-72
2022/04/04 09:31:32;;;;;;;11.43;9.75;;;6.00;99.90;;;;;;5038332;28;20045;-72
2022/04/04 09:33:59;;;;;;;16.45;10.60;;;;;;;;;;5028033;28;20031;-72
2022/04/04 09:36:25;;;;;;;15.20;11.13;;;;;;;;;;5033677;28;20127;-72
2022/04/04 09:39:03;;;;;;;13.35;10.68;;;;;;;;;;5042663;28;20183;-72
2022/04/04 09:41:30;;;;;;;15.95;10.18;;;;;;;;;;5033136;28;20437;-72
2022/04/04 09:43:59;;;;;;;15.80;10.70;;;;;;;;;;5038252;28;20029;-72
2022/04/04 09:46:38;;;;;;;15.40;10.25;;;6.10;99.90;;;;;;5036579;28;20440;-72
2022/04/04 09:49:20;;;;;;;14.88;10.10;;;6.30;99.90;;;;;;5037327;28;20037;-72
2022/04/04 09:51:54;;;;;;;13.25;8.38;;;6.30;99.90;;;;;;5035073;28;20908;-72
2022/04/04 09:54:23;;;;;;;18.40;8.65;;;6.30;99.90;;;;;;5029687;28;20486;-72
2022/04/04 09:56:54;;;;;;;10.35;8.20;;;6.40;99.90;;;;;;5038686;28;20324;-72
2022/04/04 09:59:19;;;;;;;11.43;7.88;;;6.50;99.90;;;;;;5042041;28;20028;-72
2022/04/04 10:01:46;;;;;;;10.60;8.02;;;6.50;99.90;;;;;;5037336;28;20033;-72
2022/04/04 10:04:13;;;;;;;14.45;7.97;;;6.50;99.90;;;;;;5035762;28;20024;-72
2022/04/04 10:06:41;;;;;;;9.00;7.20;;;6.60;99.90;;;;;;5038905;28;20033;-72
2022/04/04 10:09:07;;;;;;;12.57;8.15;;;6.60;99.90;;;;;;5043718;28;20033;-72
2022/04/04 10:11:35;;;;;;;11.00;7.93;;;6.60;99.90;;;;;;5046860;28;20087;-72
2022/04/04 10:14:01;;;;;;;10.18;7.72;;;6.60;99.90;;;;;;5030939;28;20028;-72
2022/04/04 10:16:27;;;;;;;11.50;8.27;;;6.60;99.90;;;;;;5031528;28;20073;-72
2022/04/04 10:18:55;;;;;;;11.07;8.27;;;6.60;99.90;;;;;;5037894;28;20033;-72
2022/04/04 10:21:21;;;;;;;13.57;9.27;;;6.60;99.90;;;;;;5033094;28;20108;-72
2022/04/04 10:23:48;;;;;;;12.85;8.20;;;;;;;;;;5028238;28;20017;-72
2022/04/04 10:26:15;;;;;;;10.85;8.35;;;;;;;;;;5039296;28;20029;-72
2022/04/04 10:28:44;;;;;;;14.50;8.30;;;;;;;;;;5035573;28;20036;-72
2022/04/04 10:31:15;;;;;;;9.50;7.90;;;6.30;99.90;;;;;;5039986;28;20508;-73
2022/04/04 10:33:41;;;;;;;12.20;7.85;;;6.30;99.90;;;;;;5037239;28;20033;-73
2022/04/04 10:36:09;;;;;;;11.15;8.50;;;6.20;99.90;;;;;;5046693;28;20481;-71
2022/04/04 10:38:37;;;;;;;12.10;8.20;;;6.10;99.90;;;;;;5051708;28;20107;-72
2022/04/04 10:41:07;;;;;;;12.73;9.60;;;6.10;99.90;;;;;;5030479;28;20033;-74
2022/04/04 10:43:40;;;;;;;15.05;10.20;;;6.10;99.90;;;;;;5037038;28;20164;-74
2022/04/04 10:46:11;;;;;;;14.07;8.90;;;6.10;99.90;;;;;;5041360;28;20222;-74
2022/04/04 10:48:48;;;;;;;12.85;9.25;;;6.10;99.90;;;;;;5032513;28;20041;-74
2022/04/04 10:51:19;;;;;;;15.85;10.73;;;6.10;99.90;;;;;;5034107;28;20356;-74
2022/04/04 10:53:49;;;;;;;10.02;7.72;;;6.10;99.90;;;;;;5041933;28;20039;-74
2022/04/04 10:56:22;;;;;;;14.20;9.10;;;6.10;99.90;;;;;;5031853;28;20040;-74
2022/04/04 10:58:51;;;;;;;13.45;9.38;;;6.10;99.90;;;;;;5042699;28;20024;-74
2022/04/04 11:01:20;;;;;;;13.15;9.00;;;6.20;99.90;;;;;;5049091;28;20169;-74
2022/04/04 11:03:51;;;;;;;10.43;8.20;;;6.30;99.90;;;;;;5041387;28;20044;-74
2022/04/04 11:09:22;;;;;;;9.88;7.43;;;6.40;99.90;;;;;;5054985;28;20043;-74
2022/04/04 11:11:55;;;;;;;9.02;7.53;;;6.40;99.90;;;;;;5032569;28;20127;-74
2022/04/04 11:14:54;;;;;;;11.60;7.47;;;6.50;99.90;;;;;;5040460;28;20441;-74
2022/04/04 11:17:31;;;;;;;9.68;7.25;;;6.60;99.90;;;;;;5046028;28;20640;-74
2022/04/04 11:20:04;;;;;;;12.35;7.50;;;6.60;99.90;;;;;;5040132;28;20082;-74
2022/04/04 11:22:36;;;;;;;9.82;7.25;;;6.60;99.90;;;;;;5039175;28;20481;-74
2022/04/04 11:25:07;;;;;;;7.28;5.55;;;6.60;99.90;;;;;;5039032;28;20036;-74
2022/04/04 11:27:35;;;;;;;8.43;6.45;;;6.60;99.90;;;;;;5039228;28;20136;-75
2022/04/04 11:30:06;;;;;;;12.90;7.50;;;6.60;99.90;;;;;;5037097;28;20191;-75
2022/04/04 11:32:34;;;;;;;9.90;7.38;;;6.60;99.90;;;;;;5052829;28;20031;-72
2022/04/04 11:35:22;;;;;;;11.65;7.18;;;6.80;99.90;;;;;;5047863;28;20041;-72
2022/04/04 11:37:56;;;;;;;11.45;7.20;;;6.80;99.90;;;;;;5045154;28;20037;-72
2022/04/04 11:40:26;;;;;;;8.80;6.50;;;6.90;99.90;;;;;;5032444;28;20029;-72
2022/04/04 11:42:52;;;;;;;10.95;6.95;;;6.70;99.90;;;;;;5026650;28;20028;-72
2022/04/04 11:45:23;;;;;;;12.98;7.80;;;6.70;99.90;;;;;;5033490;28;20040;-71
2022/04/04 11:47:57;;;;;;;10.85;7.95;;;6.70;99.90;;;;;;5033836;28;20250;-72
2022/04/04 11:50:28;;;;;;;8.75;7.15;;;6.80;99.90;;;;;;5030717;28;20036;-72
2022/04/04 11:53:02;;;;;;;14.15;8.07;;;6.70;99.90;;;;;;5051663;28;20030;-72
2022/04/04 11:55:30;;;;;;;8.82;7.18;;;6.70;99.90;;;;;;5055052;28;20048;-71
2022/04/04 11:57:58;;;;;;;11.32;7.20;;;6.70;99.90;;;;;;5026426;28;20025;-72
2022/04/04 12:00:35;;;;;;;10.27;7.68;;;6.70;99.90;;;;;;5025595;28;20014;-72
2022/04/04 12:03:09;;;;;;;9.73;7.18;;;6.70;99.90;;;;;;5036828;28;20082;-72
2022/04/04 12:05:39;;;;;;;13.65;7.40;;;6.80;99.90;;;;;;5038482;28;20044;-72
2022/04/04 12:08:06;;;;;;;9.27;7.50;;;6.80;99.90;;;;;;5037257;28;20116;-71
2022/04/04 12:10:33;;;;;;;15.13;7.43;;;6.70;99.90;;;;;;5026493;28;20036;-72
2022/04/04 12:13:02;;;;;;;10.85;7.60;;;6.70;99.90;;;;;;5026051;28;20029;-72
2022/04/04 12:15:31;;;;;;;12.65;7.18;;;6.80;99.90;;;;;;5045965;28;20037;-72
2022/04/04 12:17:58;;;;;;;10.43;8.00;;;6.80;99.90;;;;;;5047443;28;20029;-72
2022/04/04 12:20:24;;;;;;;10.27;7.70;;;6.70;99.90;;;;;;5034734;28;20442;-73
2022/04/04 12:25:34;;;;;;;12.13;7.40;;;6.70;99.90;;;;;;5043502;28;20051;-72
2022/04/04 12:28:02;;;;;;;11.43;7.20;;;6.60;99.90;;;;;;5035652;28;20033;-72
2022/04/04 12:30:35;;;;;;;10.75;7.55;;;6.60;99.90;;;;;;5040803;28;20036;-72
2022/04/04 12:33:14;;;;;;;10.38;7.70;;;6.70;99.90;;;;;;4691434;28;10000068;-74
2022/04/04 12:35:48;;;;;;;14.88;7.35;;;6.70;99.90;;;;;;5031836;28;20044;-74
2022/04/04 12:38:34;;;;;;;8.88;7.72;;;6.60;99.90;;;;;;5040557;28;20025;-73
2022/04/04 12:41:04;;;;;;;11.35;7.72;;;6.50;99.90;;;;;;5044543;28;20099;-73
2022/04/04 12:43:30;;;;;;;10.60;7.47;;;6.50;99.90;;;;;;5043793;28;20467;-74
2022/04/04 12:45:56;;;;;;;10.32;7.80;;;6.50;99.90;;;;;;5037446;28;20107;-72
2022/04/04 12:48:21;;;;;;;11.90;7.45;;;6.50;99.90;;;;;;5045207;28;20055;-73
2022/04/04 12:50:48;;;;;;;11.35;8.07;;;6.50;99.90;;;;;;5041126;28;20119;-73
2022/04/04 12:53:16;;;;;;;11.18;8.05;;;6.50;99.90;;;;;;5035547;28;20046;-73
2022/04/04 12:55:45;;;;;;;11.32;7.60;;;6.40;99.90;;;;;;5034953;28;20040;-72